createdAt,value
2023-01-10T00:01:13.113Z,97391.02
2023-01-10T00:03:45.708Z,97387.98
2023-01-10T00:06:18.184Z,97389.42
2023-01-10T00:08:50.602Z,97387.96
2023-01-10T00:11:44.172Z,97389.19
2023-01-10T00:14:17.411Z,97388.02
2023-01-10T00:16:52.950Z,97387.71
2023-01-10T00:19:25.474Z,97386.89
2023-01-10T00:22:02.772Z,97387.75
2023-01-10T00:24:35.278Z,97392.00
2023-01-10T00:27:11.345Z,97392.35
2023-01-10T00:29:43.951Z,97394.05
2023-01-10T00:32:16.485Z,97396.92
2023-01-10T00:34:49.091Z,97396.66
2023-01-10T00:37:21.940Z,97400.70
2023-01-10T00:39:55.547Z,97402.56
2023-01-10T00:42:45.896Z,97405.85
2023-01-10T00:45:22.743Z,97411.17
2023-01-10T00:47:56.555Z,97410.46
2023-01-10T00:50:29.008Z,97410.84
2023-01-10T00:53:01.914Z,97416.27
2023-01-10T00:55:35.222Z,97420.72
2023-01-10T00:58:08.552Z,97415.23
2023-01-10T01:00:41.146Z,97418.79
2023-01-10T01:03:14.610Z,97420.61
2023-01-10T01:05:48.813Z,97425.48
2023-01-10T01:08:22.160Z,97430.20
2023-01-10T01:10:54.581Z,97433.13
2023-01-10T01:13:26.944Z,97439.48
2023-01-10T01:16:02.264Z,97440.73
2023-01-10T01:18:35.372Z,97439.63
2023-01-10T01:21:08.696Z,97440.84
2023-01-10T01:23:44.567Z,97446.04
2023-01-10T01:26:16.895Z,97449.36
2023-01-10T01:28:49.867Z,97450.95
2023-01-10T01:31:22.612Z,97450.65
2023-01-10T01:33:55.014Z,97454.52
2023-01-10T01:36:28.833Z,97457.92
2023-01-10T01:39:01.312Z,97462.07
2023-01-10T01:41:51.828Z,97462.05
2023-01-10T01:44:24.282Z,97463.65
2023-01-10T01:47:05.867Z,97464.44
2023-01-10T01:49:41.990Z,97470.66
2023-01-10T01:52:20.154Z,97472.84
2023-01-10T01:54:53.897Z,97479.02
2023-01-10T01:57:29.041Z,97480.31
2023-01-10T02:00:05.141Z,97476.85
2023-01-10T02:03:01.849Z,97481.77
2023-01-10T02:05:40.449Z,97482.17
2023-01-10T02:08:13.816Z,97485.09
2023-01-10T02:10:52.557Z,97487.40
2023-01-10T02:13:28.154Z,97490.40
2023-01-10T02:16:01.514Z,97489.63
2023-01-10T02:18:34.069Z,97492.91
2023-01-10T02:21:32.570Z,97493.94
2023-01-10T02:24:33.339Z,97498.37
2023-01-10T02:27:20.451Z,97497.20
2023-01-10T02:30:29.518Z,97499.14
2023-01-10T02:33:08.062Z,97505.47
2023-01-10T02:36:09.881Z,97508.25
2023-01-10T02:38:54.358Z,97504.53
2023-01-10T02:41:38.127Z,97500.36
2023-01-10T02:44:21.367Z,97501.86
2023-01-10T02:46:53.756Z,97504.70
2023-01-10T02:49:26.678Z,97507.52
2023-01-10T02:51:59.708Z,97509.23
2023-01-10T02:54:33.352Z,97511.45
2023-01-10T02:57:29.014Z,97511.61
2023-01-10T03:00:26.128Z,97513.84
2023-01-10T03:03:16.276Z,97517.14
2023-01-10T03:06:07.797Z,97519.31
2023-01-10T03:08:44.309Z,97520.69
2023-01-10T03:11:37.031Z,97522.06
2023-01-10T03:14:14.087Z,97533.41
2023-01-10T03:16:51.941Z,97538.09
2023-01-10T03:19:28.311Z,97542.41
2023-01-10T03:22:03.894Z,97549.55
2023-01-10T03:24:42.133Z,97560.41
2023-01-10T03:27:21.624Z,97561.52
2023-01-10T03:30:02.876Z,97563.98
2023-01-10T03:32:35.756Z,97567.59
2023-01-10T03:35:10.859Z,97564.05
2023-01-10T03:37:53.967Z,97572.19
2023-01-10T03:40:37.744Z,97575.98
2023-01-10T03:43:35.615Z,97579.02
2023-01-10T03:46:12.676Z,97586.77
2023-01-10T03:48:48.300Z,97590.20
2023-01-10T03:51:22.168Z,97598.27
2023-01-10T03:53:54.725Z,97601.77
2023-01-10T03:56:27.115Z,97607.45
2023-01-10T03:58:59.977Z,97617.77
2023-01-10T04:01:32.413Z,97621.55
2023-01-10T04:04:05.388Z,97625.56
2023-01-10T04:06:37.905Z,97631.39
2023-01-10T04:09:10.830Z,97635.47
2023-01-10T04:11:43.252Z,97638.76
2023-01-10T04:14:15.596Z,97638.17
2023-01-10T04:16:48.231Z,97647.14
2023-01-10T04:19:20.634Z,97649.98
2023-01-10T04:21:53.457Z,97650.16
2023-01-10T04:24:26.468Z,97657.98
2023-01-10T04:26:58.893Z,97657.08
2023-01-10T04:29:31.279Z,97663.50
2023-01-10T04:32:04.012Z,97669.00
2023-01-10T04:34:36.444Z,97669.75
2023-01-10T04:37:08.808Z,97672.30
2023-01-10T04:39:41.178Z,97672.73
2023-01-10T04:42:14.015Z,97680.79
2023-01-10T04:44:46.337Z,97685.58
2023-01-10T04:47:18.644Z,97685.33
2023-01-10T04:49:50.989Z,97687.96
2023-01-10T04:52:28.638Z,97697.32
2023-01-10T04:55:01.020Z,97704.64
2023-01-10T04:57:33.766Z,97708.63
2023-01-10T05:00:07.997Z,97713.98
2023-01-10T05:02:44.529Z,97714.21
2023-01-10T05:05:17.791Z,97718.09
2023-01-10T05:07:50.485Z,97719.36
2023-01-10T05:10:23.073Z,97722.14
2023-01-10T05:12:55.362Z,97722.54
2023-01-10T05:15:27.771Z,97724.20
2023-01-10T05:18:02.463Z,97725.14
2023-01-10T05:20:35.189Z,97727.77
2023-01-10T05:23:07.597Z,97728.66
2023-01-10T05:25:40.054Z,97735.58
2023-01-10T05:28:12.742Z,97739.17
2023-01-10T05:30:45.137Z,97739.45
2023-01-10T05:33:17.629Z,97744.83
2023-01-10T05:35:50.117Z,97749.77
2023-01-10T05:38:22.788Z,97751.31
2023-01-10T05:40:59.711Z,97757.86
2023-01-10T05:43:32.121Z,97765.23
2023-01-10T05:46:04.645Z,97765.45
2023-01-10T05:48:37.506Z,97770.73
2023-01-10T05:51:10.340Z,97774.92
2023-01-10T05:53:43.580Z,97778.42
2023-01-10T05:56:16.178Z,97789.77
2023-01-10T05:58:51.477Z,97795.86
2023-01-10T06:01:27.773Z,97802.67
2023-01-10T06:04:00.932Z,97805.10
2023-01-10T06:06:34.584Z,97809.59
2023-01-10T06:09:09.418Z,97816.06
2023-01-10T06:11:41.797Z,97825.02
2023-01-10T06:14:19.183Z,97827.63
2023-01-10T06:16:51.904Z,97827.88
2023-01-10T06:19:26.071Z,97829.06
2023-01-10T06:21:59.345Z,97834.39
2023-01-10T06:24:31.736Z,97838.61
2023-01-10T06:27:04.161Z,97846.25
2023-01-10T06:29:36.806Z,97844.23
2023-01-10T06:32:11.415Z,97846.38
2023-01-10T06:34:43.771Z,97847.91
2023-01-10T06:37:17.332Z,97851.08
2023-01-10T06:39:51.352Z,97858.88
2023-01-10T06:42:23.822Z,97866.17
2023-01-10T06:44:56.745Z,97866.50
2023-01-10T06:47:29.144Z,97872.61
2023-01-10T06:50:01.693Z,97873.18
2023-01-10T06:52:34.574Z,97879.96
2023-01-10T06:55:10.872Z,97889.13
2023-01-10T06:57:43.656Z,97898.71
2023-01-10T07:00:18.119Z,97900.40
2023-01-10T07:02:50.555Z,97904.70
2023-01-10T07:05:23.724Z,97906.23
2023-01-10T07:07:56.835Z,97909.92
2023-01-10T07:10:29.495Z,97916.08
2023-01-10T07:13:02.594Z,97916.08
2023-01-10T07:15:38.718Z,97923.08
2023-01-10T07:18:12.772Z,97923.14
2023-01-10T07:20:45.598Z,97929.70
2023-01-10T07:23:19.002Z,97933.25
2023-01-10T07:25:51.734Z,97934.77
2023-01-10T07:28:24.622Z,97940.32
2023-01-10T07:30:59.302Z,97944.80
2023-01-10T07:33:33.008Z,97944.81
2023-01-10T07:36:05.882Z,97948.58
2023-01-10T07:38:38.657Z,97942.36
2023-01-10T07:41:13.332Z,97943.73
2023-01-10T07:43:45.784Z,97942.92
2023-01-10T07:46:18.539Z,97942.98
2023-01-10T07:48:53.827Z,97944.13
2023-01-10T07:51:26.116Z,97944.23
2023-01-10T07:53:58.436Z,97946.63
2023-01-10T07:56:30.958Z,97949.13
2023-01-10T07:59:03.384Z,97949.42
2023-01-10T08:01:35.667Z,97948.70
2023-01-10T08:04:08.172Z,97950.47
2023-01-10T08:06:40.461Z,97948.02
2023-01-10T08:09:12.937Z,97950.02
2023-01-10T08:11:45.351Z,97949.92
2023-01-10T08:14:17.717Z,97956.52
2023-01-10T08:16:50.107Z,97956.55
2023-01-10T08:19:22.866Z,97964.00
2023-01-10T08:21:55.679Z,97966.08
2023-01-10T08:24:28.440Z,97968.65
2023-01-10T08:27:05.180Z,97968.18
2023-01-10T08:29:40.298Z,97975.77
2023-01-10T08:32:13.027Z,97985.10
2023-01-10T08:34:45.636Z,97989.61
2023-01-10T08:37:18.015Z,97989.52
2023-01-10T08:39:50.963Z,97993.08
2023-01-10T08:42:23.331Z,97998.05
2023-01-10T08:44:55.762Z,98005.22
2023-01-10T08:47:29.538Z,98003.54
2023-01-10T08:50:02.394Z,98004.92
2023-01-10T08:52:35.379Z,98004.83
2023-01-10T08:55:09.549Z,98008.77
2023-01-10T08:57:42.436Z,98009.73
2023-01-10T09:00:18.911Z,98007.00
2023-01-10T09:02:51.932Z,98015.67
2023-01-10T09:05:28.343Z,98023.23
2023-01-10T09:08:03.638Z,98024.42
2023-01-10T09:10:35.930Z,98028.57
2023-01-10T09:13:09.705Z,98034.11
2023-01-10T09:15:43.541Z,98036.58
2023-01-10T09:18:16.444Z,98037.60
2023-01-10T09:20:48.729Z,98037.61
2023-01-10T09:23:23.567Z,98030.48
2023-01-10T09:25:57.999Z,98033.52
2023-01-10T09:28:30.427Z,98043.92
2023-01-10T09:31:04.620Z,98054.52
2023-01-10T09:33:46.148Z,98061.77
2023-01-10T09:36:19.763Z,98070.04
2023-01-10T09:38:52.173Z,98070.77
2023-01-10T09:41:41.825Z,98069.41
2023-01-10T09:44:20.396Z,98069.90
2023-01-10T09:46:59.025Z,98069.85
2023-01-10T09:49:48.124Z,98074.15
2023-01-10T09:52:27.491Z,98075.55
2023-01-10T09:55:05.753Z,98076.19
2023-01-10T09:57:38.231Z,98078.27
2023-01-10T10:00:16.838Z,98075.56
2023-01-10T10:02:53.425Z,98073.09
2023-01-10T10:05:28.629Z,98074.52
2023-01-10T10:08:05.107Z,98077.61
2023-01-10T10:10:43.003Z,98083.55
2023-01-10T10:13:27.538Z,98083.64
2023-01-10T10:16:09.066Z,98077.41
2023-01-10T10:18:54.901Z,98081.58
2023-01-10T10:21:36.997Z,98091.36
2023-01-10T10:24:32.721Z,98093.48
2023-01-10T10:27:17.529Z,98090.95
2023-01-10T10:30:06.632Z,98091.31
2023-01-10T10:32:57.836Z,98092.98
2023-01-10T10:35:34.445Z,98098.77
2023-01-10T10:38:13.762Z,98102.16
2023-01-10T10:40:48.249Z,98109.05
2023-01-10T10:43:25.834Z,98111.87
2023-01-10T10:46:02.576Z,98111.62
2023-01-10T10:48:40.951Z,98117.96
2023-01-10T10:51:20.966Z,98125.10
2023-01-10T10:53:54.896Z,98126.30
2023-01-10T10:56:28.596Z,98125.81
2023-01-10T10:59:02.371Z,98126.85
2023-01-10T11:01:35.027Z,98125.69
2023-01-10T11:04:13.602Z,98125.84
2023-01-10T11:06:49.597Z,98127.11
2023-01-10T11:09:26.035Z,98134.66
2023-01-10T11:11:59.468Z,98136.63
2023-01-10T11:14:47.253Z,98139.10
2023-01-10T11:17:26.796Z,98141.25
2023-01-10T11:20:01.737Z,98145.05
2023-01-10T11:22:42.649Z,98142.70
2023-01-10T11:25:19.649Z,98145.22
2023-01-10T11:27:54.487Z,98148.23
2023-01-10T11:30:29.818Z,98150.98
2023-01-10T11:33:05.775Z,98159.30
2023-01-10T11:35:41.513Z,98162.30
2023-01-10T11:38:24.746Z,98165.67
2023-01-10T11:40:59.721Z,98166.41
2023-01-10T11:43:35.176Z,98167.59
2023-01-10T11:46:16.633Z,98172.95
2023-01-10T11:49:07.103Z,98178.55
2023-01-10T11:51:45.945Z,98178.50
2023-01-10T11:54:22.638Z,98184.02
2023-01-10T11:57:00.195Z,98184.86
2023-01-10T11:59:33.364Z,98190.80
2023-01-10T12:02:12.971Z,98197.67
2023-01-10T12:04:47.874Z,98201.64
2023-01-10T12:07:20.173Z,98200.16
2023-01-10T12:09:59.814Z,98204.89
2023-01-10T12:12:34.406Z,98208.08
2023-01-10T12:15:24.680Z,98209.71
2023-01-10T12:18:00.332Z,98215.63
2023-01-10T12:20:43.163Z,98218.58
2023-01-10T12:23:19.147Z,98221.80
2023-01-10T12:26:00.296Z,98223.89
2023-01-10T12:28:42.433Z,98226.77
2023-01-10T12:31:18.759Z,98229.62
2023-01-10T12:33:55.909Z,98237.63
2023-01-10T12:36:41.095Z,98242.77
2023-01-10T12:39:21.062Z,98240.58
2023-01-10T12:42:21.313Z,98243.73
2023-01-10T12:45:01.137Z,98248.39
2023-01-10T12:47:54.724Z,98252.63
2023-01-10T12:50:32.700Z,98256.11
2023-01-10T12:53:12.956Z,98258.66
2023-01-10T12:55:47.654Z,98263.10
2023-01-10T12:58:25.381Z,98269.23
2023-01-10T13:01:01.742Z,98271.59
2023-01-10T13:03:36.060Z,98269.69
2023-01-10T13:06:09.318Z,98276.02
2023-01-10T13:08:43.812Z,98278.60
2023-01-10T13:11:21.663Z,98278.55
2023-01-10T13:13:58.285Z,98282.07
2023-01-10T13:16:43.664Z,98288.23
2023-01-10T13:19:29.537Z,98294.08
2023-01-10T13:22:22.990Z,98296.98
2023-01-10T13:25:03.473Z,98301.39
2023-01-10T13:27:36.798Z,98303.23
2023-01-10T13:30:30.558Z,98308.70
2023-01-10T13:33:08.238Z,98317.40
2023-01-10T13:35:48.957Z,98321.23
2023-01-10T13:38:28.127Z,98321.93
2023-01-10T13:41:06.475Z,98321.77
2023-01-10T13:44:01.072Z,98318.50
2023-01-10T13:46:39.372Z,98322.95
2023-01-10T13:49:43.573Z,98328.92
2023-01-10T13:52:38.322Z,98329.00
2023-01-10T13:55:34.369Z,98335.38
2023-01-10T13:58:43.809Z,98340.46
2023-01-10T14:01:46.152Z,98336.39
2023-01-10T14:04:24.899Z,98338.39
2023-01-10T14:07:00.947Z,98345.80
2023-01-10T14:09:39.822Z,98353.12
2023-01-10T14:12:23.621Z,98358.93
2023-01-10T14:15:04.102Z,98360.96
2023-01-10T14:17:38.545Z,98359.45
2023-01-10T14:20:22.927Z,98361.83
2023-01-10T14:23:05.069Z,98364.09
2023-01-10T14:25:39.409Z,98362.64
2023-01-10T14:28:22.912Z,98360.64
2023-01-10T14:31:05.309Z,98363.73
2023-01-10T14:33:39.027Z,98366.94
2023-01-10T14:36:19.886Z,98365.11
2023-01-10T14:38:57.044Z,98366.46
2023-01-10T14:41:38.489Z,98365.80
2023-01-10T14:44:15.158Z,98368.50
2023-01-10T14:46:51.082Z,98375.92
2023-01-10T14:49:26.653Z,98376.05
2023-01-10T14:55:11.781Z,98381.24
2023-01-10T14:57:56.220Z,98385.17
2023-01-10T15:00:31.304Z,98386.69
2023-01-10T15:03:09.602Z,98390.17
2023-01-10T15:05:51.141Z,98390.66
2023-01-10T15:08:26.503Z,98397.80
2023-01-10T15:11:04.174Z,98401.34
2023-01-10T15:13:43.007Z,98405.25
2023-01-10T15:18:53.118Z,98415.55
2023-01-10T15:21:26.250Z,98425.91
2023-01-10T15:23:58.858Z,98432.66
2023-01-10T15:26:34.301Z,98441.41
2023-01-10T15:29:12.251Z,98441.89
2023-01-10T15:31:45.176Z,98444.95
2023-01-10T15:34:22.005Z,98442.52
2023-01-10T15:36:58.574Z,98445.83
2023-01-10T15:39:33.908Z,98449.98
2023-01-10T15:42:09.956Z,98458.67
2023-01-10T15:44:45.342Z,98462.92
2023-01-10T15:47:42.022Z,98467.79
2023-01-10T15:50:28.600Z,98467.59
2023-01-10T15:53:02.765Z,98469.56
2023-01-10T15:55:45.423Z,98468.48
2023-01-10T15:58:24.007Z,98467.70
2023-01-10T16:00:59.179Z,98469.48
2023-01-10T16:03:35.891Z,98466.96
2023-01-10T16:06:20.223Z,98468.27
2023-01-10T16:08:54.482Z,98466.48
2023-01-10T16:11:52.631Z,98464.64
2023-01-10T16:14:25.529Z,98469.73
2023-01-10T16:16:57.992Z,98470.53
2023-01-10T16:19:30.544Z,98471.19
2023-01-10T16:22:04.549Z,98477.40
2023-01-10T16:24:43.749Z,98478.64
2023-01-10T16:27:16.109Z,98481.45
2023-01-10T16:29:48.432Z,98485.36
2023-01-10T16:32:20.767Z,98486.27
2023-01-10T16:34:53.013Z,98487.64
2023-01-10T16:37:25.296Z,98490.44
2023-01-10T16:39:59.185Z,98497.73
2023-01-10T16:42:52.070Z,98502.42
2023-01-10T16:45:24.487Z,98505.31
2023-01-10T16:47:56.839Z,98506.88
2023-01-10T16:50:29.326Z,98515.27
2023-01-10T16:53:06.288Z,98507.98
2023-01-10T16:55:44.352Z,98514.27
2023-01-10T16:58:17.621Z,98521.16
2023-01-10T17:00:53.653Z,98523.91
2023-01-10T17:03:27.648Z,98523.54
2023-01-10T17:06:02.595Z,98524.65
2023-01-10T17:08:34.946Z,98522.60
2023-01-10T17:11:12.427Z,98523.91
2023-01-10T17:13:46.520Z,98529.61
2023-01-10T17:16:19.931Z,98533.89
2023-01-10T17:18:52.769Z,98538.14
2023-01-10T17:21:25.570Z,98540.90
2023-01-10T17:24:00.446Z,98549.74
2023-01-10T17:26:32.999Z,98558.14
2023-01-10T17:29:05.241Z,98562.91
2023-01-10T17:31:37.663Z,98564.95
2023-01-10T17:34:10.117Z,98567.52
2023-01-10T17:36:42.669Z,98571.58
2023-01-10T17:39:14.915Z,98573.53
2023-01-10T17:41:47.247Z,98573.01
2023-01-10T17:44:19.829Z,98575.26
2023-01-10T17:46:54.840Z,98582.39
2023-01-10T17:49:27.357Z,98593.45
2023-01-10T17:52:00.196Z,98600.04
2023-01-10T17:54:32.843Z,98603.43
2023-01-10T17:57:06.261Z,98601.81
2023-01-10T17:59:39.256Z,98602.19
2023-01-10T18:02:18.728Z,98598.80
2023-01-10T18:04:52.927Z,98599.14
2023-01-10T18:07:25.416Z,98604.69
2023-01-10T18:09:58.122Z,98607.19
2023-01-10T18:12:30.394Z,98606.08
2023-01-10T18:15:02.769Z,98609.16
2023-01-10T18:17:35.220Z,98610.54
2023-01-10T18:20:09.723Z,98616.70
2023-01-10T18:23:03.422Z,98617.20
2023-01-10T18:25:37.109Z,98617.62
2023-01-10T18:28:09.630Z,98619.16
2023-01-10T18:30:42.510Z,98625.26
2023-01-10T18:33:15.262Z,98625.95
2023-01-10T18:35:48.951Z,98628.45
2023-01-10T18:38:21.657Z,98631.02
2023-01-10T18:40:57.750Z,98628.88
2023-01-10T18:43:33.303Z,98630.58
2023-01-10T18:46:08.965Z,98629.45
2023-01-10T18:48:41.285Z,98631.22
2023-01-10T18:51:15.464Z,98633.77
2023-01-10T18:53:49.205Z,98632.27
2023-01-10T18:56:21.660Z,98629.61
2023-01-10T18:58:54.086Z,98627.36
2023-01-10T19:01:27.302Z,98630.43
2023-01-10T19:04:00.248Z,98636.05
2023-01-10T19:06:32.576Z,98634.23
2023-01-10T19:09:05.436Z,98631.64
2023-01-10T19:11:38.069Z,98631.59
2023-01-10T19:14:10.415Z,98631.36
2023-01-10T19:16:42.713Z,98645.54
2023-01-10T19:19:15.035Z,98646.81
2023-01-10T19:21:47.304Z,98653.48
2023-01-10T19:24:24.700Z,98656.70
2023-01-10T19:26:59.648Z,98655.41
2023-01-10T19:29:32.191Z,98656.12
2023-01-10T19:32:04.930Z,98657.97
2023-01-10T19:34:39.251Z,98654.64
2023-01-10T19:37:11.825Z,98653.79
2023-01-10T19:39:44.187Z,98652.45
2023-01-10T19:42:16.462Z,98649.61
2023-01-10T19:44:50.937Z,98653.35
2023-01-10T19:47:23.290Z,98655.05
2023-01-10T19:49:55.871Z,98660.45
2023-01-10T19:52:28.316Z,98662.20
2023-01-10T19:55:03.088Z,98665.59
2023-01-10T19:57:35.628Z,98665.70
2023-01-10T20:00:10.014Z,98665.97
2023-01-10T20:02:47.111Z,98667.51
2023-01-10T20:05:20.441Z,98668.26
2023-01-10T20:07:55.448Z,98664.02
2023-01-10T20:10:29.007Z,98661.39
2023-01-10T20:13:01.563Z,98665.95
2023-01-10T20:15:34.800Z,98669.22
2023-01-10T20:18:07.424Z,98665.09
2023-01-10T20:20:41.511Z,98658.63
2023-01-10T20:23:14.262Z,98656.27
2023-01-10T20:25:56.322Z,98658.11
2023-01-10T20:28:28.706Z,98660.30
2023-01-10T20:31:01.836Z,98662.04
2023-01-10T20:33:34.715Z,98657.20
2023-01-10T20:36:09.163Z,98657.83
2023-01-10T20:38:41.794Z,98660.96
2023-01-10T20:41:16.823Z,98662.27
2023-01-10T20:43:52.643Z,98667.75
2023-01-10T20:46:27.926Z,98668.98
2023-01-10T20:49:02.870Z,98671.33
2023-01-10T20:51:37.585Z,98675.14
2023-01-10T20:54:11.341Z,98674.99
2023-01-10T20:56:43.929Z,98676.77
2023-01-10T20:59:16.635Z,98675.80
2023-01-10T21:01:49.119Z,98676.98
2023-01-10T21:04:21.530Z,98676.52
2023-01-10T21:06:54.119Z,98677.61
2023-01-10T21:09:26.634Z,98682.36
2023-01-10T21:12:13.625Z,98680.73
2023-01-10T21:14:52.615Z,98677.52
2023-01-10T21:17:25.061Z,98681.96
2023-01-10T21:19:57.361Z,98682.88
2023-01-10T21:22:32.169Z,98688.63
2023-01-10T21:25:04.811Z,98692.09
2023-01-10T21:27:37.200Z,98694.14
2023-01-10T21:30:14.704Z,98695.01
2023-01-10T21:32:47.336Z,98699.42
2023-01-10T21:35:20.260Z,98697.02
2023-01-10T21:37:52.708Z,98695.17
2023-01-10T21:40:25.327Z,98700.35
2023-01-10T21:42:58.124Z,98708.98
2023-01-10T21:45:30.586Z,98707.02
2023-01-10T21:48:03.217Z,98710.30
2023-01-10T21:50:35.686Z,98707.86
2023-01-10T21:53:08.147Z,98710.01
2023-01-10T21:55:44.329Z,98711.81
2023-01-10T21:58:17.748Z,98712.56
2023-01-10T22:00:50.536Z,98710.19
2023-01-10T22:06:36.157Z,98702.08
2023-01-10T22:09:08.895Z,98705.48
2023-01-10T22:11:41.183Z,98706.21
2023-01-10T22:14:14.256Z,98710.30
2023-01-10T22:16:46.620Z,98712.55
2023-01-10T22:19:18.953Z,98716.65
2023-01-10T22:21:51.629Z,98713.45
2023-01-10T22:24:26.788Z,98710.52
2023-01-10T22:26:59.946Z,98710.67
2023-01-10T22:29:32.351Z,98708.17
2023-01-10T22:32:04.933Z,98709.93
2023-01-10T22:34:37.727Z,98707.41
2023-01-10T22:37:10.145Z,98706.64
2023-01-10T22:39:42.569Z,98705.29
2023-01-10T22:42:15.017Z,98708.23
2023-01-10T22:44:47.552Z,98709.91
2023-01-10T22:47:20.385Z,98708.70
2023-01-10T22:49:54.360Z,98707.44
2023-01-10T22:52:26.791Z,98704.94
2023-01-10T22:54:59.186Z,98701.42
2023-01-10T22:57:33.184Z,98700.40
2023-01-10T23:00:10.818Z,98701.30
2023-01-10T23:02:43.447Z,98703.38
2023-01-10T23:05:19.300Z,98705.65
2023-01-10T23:07:53.168Z,98702.88
2023-01-10T23:10:30.826Z,98702.48
2023-01-10T23:13:07.458Z,98703.64
2023-01-10T23:15:39.921Z,98701.46
2023-01-10T23:18:12.561Z,98700.54
2023-01-10T23:20:45.285Z,98700.56
2023-01-10T23:23:18.111Z,98702.50
2023-01-10T23:26:01.861Z,98703.68
2023-01-10T23:28:36.423Z,98709.61
2023-01-10T23:31:13.557Z,98711.62
2023-01-10T23:33:46.538Z,98715.25
2023-01-10T23:36:22.230Z,98716.10
2023-01-10T23:38:54.879Z,98713.33
2023-01-10T23:41:27.928Z,98710.38
2023-01-10T23:44:01.922Z,98707.49
2023-01-10T23:46:34.454Z,98711.77
2023-01-10T23:49:09.937Z,98707.18
2023-01-10T23:51:48.419Z,98706.27
2023-01-10T23:54:24.963Z,98705.34
2023-01-10T23:57:00.141Z,98702.90
2023-01-10T23:59:38.245Z,98701.36
